sensor_id;sensor_type;location;lat;lon;timestamp;pressure;altitude;pressure_sealevel;temperature;humidity
14117;BME280;7137;51.436;6.544;2024-03-17T00:02:15;101965.44;;;6.65;94.06
14117;BME280;7137;51.436;6.544;2024-03-17T00:05:16;101956.75;;;6.60;95.37
14117;BME280;7137;51.436;6.544;2024-03-17T00:08:18;101955.00;;;6.57;94.55
14117;BME280;7137;51.436;6.544;2024-03-17T00:11:23;101946.38;;;6.55;95.94
14117;BME280;7137;51.436;6.544;2024-03-17T00:14:23;101947.22;;;6.54;95.54
14117;BME280;7137;51.436;6.544;2024-03-17T00:17:25;101945.50;;;6.54;94.82
14117;BME280;7137;51.436;6.544;2024-03-17T00:20:25;101942.03;;;6.54;95.74
14117;BME280;7137;51.436;6.544;2024-03-17T00:23:28;101928.19;;;6.58;94.31
14117;BME280;7137;51.436;6.544;2024-03-17T00:26:30;101924.78;;;6.67;94.03
14117;BME280;7137;51.436;6.544;2024-03-17T00:29:32;101924.78;;;6.71;93.59
14117;BME280;7137;51.436;6.544;2024-03-17T00:32:33;101918.75;;;6.74;93.58
14117;BME280;7137;51.436;6.544;2024-03-17T00:35:34;101915.28;;;6.75;93.66
14117;BME280;7137;51.436;6.544;2024-03-17T00:38:35;101923.94;;;6.68;94.92
14117;BME280;7137;51.436;6.544;2024-03-17T00:41:38;101918.75;;;6.72;94.26
14117;BME280;7137;51.436;6.544;2024-03-17T00:44:40;101917.00;;;6.73;95.45
14117;BME280;7137;51.436;6.544;2024-03-17T00:47:41;101913.59;;;6.78;95.51
14117;BME280;7137;51.436;6.544;2024-03-17T00:50:43;101911.84;;;6.76;95.42
14117;BME280;7137;51.436;6.544;2024-03-17T00:53:45;101917.91;;;6.82;95.55
14117;BME280;7137;51.436;6.544;2024-03-17T00:56:48;101911.00;;;6.84;95.61
14117;BME280;7137;51.436;6.544;2024-03-17T00:59:49;101904.94;;;6.76;95.41
14117;BME280;7137;51.436;6.544;2024-03-17T01:02:50;101905.75;;;6.75;96.62
14117;BME280;7137;51.436;6.544;2024-03-17T01:05:52;101908.34;;;6.75;96.52
14117;BME280;7137;51.436;6.544;2024-03-17T01:08:53;101904.94;;;6.76;96.85
14117;BME280;7137;51.436;6.544;2024-03-17T01:11:56;101896.28;;;6.79;96.11
14117;BME280;7137;51.436;6.544;2024-03-17T01:14:57;101905.81;;;6.83;96.44
14117;BME280;7137;51.436;6.544;2024-03-17T01:17:59;101896.28;;;6.83;95.70
14117;BME280;7137;51.436;6.544;2024-03-17T01:21:00;101898.00;;;6.84;96.31
14117;BME280;7137;51.436;6.544;2024-03-17T01:24:01;101894.56;;;6.82;95.74
14117;BME280;7137;51.436;6.544;2024-03-17T01:27:03;101896.28;;;6.77;95.68
14117;BME280;7137;51.436;6.544;2024-03-17T01:30:06;101890.19;;;6.74;96.18
14117;BME280;7137;51.436;6.544;2024-03-17T01:33:08;101892.75;;;6.65;96.46
14117;BME280;7137;51.436;6.544;2024-03-17T01:36:10;101883.25;;;6.71;95.55
14117;BME280;7137;51.436;6.544;2024-03-17T01:39:11;101886.66;;;6.57;97.06
14117;BME280;7137;51.436;6.544;2024-03-17T01:42:14;101875.41;;;6.51;97.91
14117;BME280;7137;51.436;6.544;2024-03-17T01:45:23;101870.22;;;6.54;97.35
14117;BME280;7137;51.436;6.544;2024-03-17T01:48:27;101867.56;;;6.45;97.60
14117;BME280;7137;51.436;6.544;2024-03-17T01:51:28;101867.56;;;6.45;98.50
14117;BME280;7137;51.436;6.544;2024-03-17T01:54:30;101879.69;;;6.46;97.55
14117;BME280;7137;51.436;6.544;2024-03-17T01:57:33;101872.78;;;6.45;97.24
14117;BME280;7137;51.436;6.544;2024-03-17T02:00:34;101873.59;;;6.34;98.47
14117;BME280;7137;51.436;6.544;2024-03-17T02:03:37;101865.78;;;6.32;98.26
14117;BME280;7137;51.436;6.544;2024-03-17T02:06:37;101877.88;;;6.24;98.35
14117;BME280;7137;51.436;6.544;2024-03-17T02:09:39;101867.44;;;6.18;97.95
14117;BME280;7137;51.436;6.544;2024-03-17T02:12:41;101874.38;;;6.17;98.01
14117;BME280;7137;51.436;6.544;2024-03-17T02:15:43;101865.72;;;6.18;98.09
14117;BME280;7137;51.436;6.544;2024-03-17T02:18:44;101867.44;;;6.18;98.17
14117;BME280;7137;51.436;6.544;2024-03-17T02:21:45;101862.31;;;6.25;98.98
14117;BME280;7137;51.436;6.544;2024-03-17T02:24:48;101854.53;;;6.22;98.98
14117;BME280;7137;51.436;6.544;2024-03-17T02:27:49;101860.56;;;6.21;99.31
14117;BME280;7137;51.436;6.544;2024-03-17T02:30:51;101843.25;;;6.19;98.69
14117;BME280;7137;51.436;6.544;2024-03-17T02:33:52;101845.00;;;6.20;99.86
14117;BME280;7137;51.436;6.544;2024-03-17T02:36:54;101838.94;;;6.19;99.72
14117;BME280;7137;51.436;6.544;2024-03-17T02:39:57;101842.34;;;6.11;99.91
14117;BME280;7137;51.436;6.544;2024-03-17T02:42:57;101844.97;;;6.14;100.00
14117;BME280;7137;51.436;6.544;2024-03-17T02:45:59;101844.06;;;6.09;99.96
14117;BME280;7137;51.436;6.544;2024-03-17T02:49:04;101852.72;;;6.09;100.00
14117;BME280;7137;51.436;6.544;2024-03-17T02:52:07;101840.56;;;6.05;100.00
14117;BME280;7137;51.436;6.544;2024-03-17T02:55:11;101835.44;;;6.10;100.00
14117;BME280;7137;51.436;6.544;2024-03-17T02:58:12;101849.25;;;6.07;100.00
14117;BME280;7137;51.436;6.544;2024-03-17T03:01:15;101847.53;;;6.06;100.00
14117;BME280;7137;51.436;6.544;2024-03-17T03:04:16;101846.63;;;6.03;99.83
14117;BME280;7137;51.436;6.544;2024-03-17T03:07:18;101841.44;;;6.04;100.00
14117;BME280;7137;51.436;6.544;2024-03-17T03:10:21;101838.91;;;6.10;100.00
14117;BME280;7137;51.436;6.544;2024-03-17T03:13:22;101845.75;;;6.05;100.00
14117;BME280;7137;51.436;6.544;2024-03-17T03:16:24;101839.69;;;6.03;100.00
14117;BME280;7137;51.436;6.544;2024-03-17T03:19:26;101843.16;;;6.05;100.00
14117;BME280;7137;51.436;6.544;2024-03-17T03:22:27;101841.44;;;6.03;100.00
14117;BME280;7137;51.436;6.544;2024-03-17T03:25:30;101842.28;;;5.94;100.00
14117;BME280;7137;51.436;6.544;2024-03-17T03:28:32;101837.97;;;5.98;100.00
14117;BME280;7137;51.436;6.544;2024-03-17T03:31:34;101842.28;;;6.00;100.00
14117;BME280;7137;51.436;6.544;2024-03-17T03:34:36;101836.22;;;5.97;100.00
14117;BME280;7137;51.436;6.544;2024-03-17T03:37:39;101837.03;;;5.91;100.00
14117;BME280;7137;51.436;6.544;2024-03-17T03:40:42;101836.13;;;5.89;100.00
14117;BME280;7137;51.436;6.544;2024-03-17T03:43:44;101841.31;;;5.84;100.00
14117;BME280;7137;51.436;6.544;2024-03-17T03:46:46;101837.84;;;5.87;100.00
14117;BME280;7137;51.436;6.544;2024-03-17T03:49:48;101837.84;;;5.85;100.00
14117;BME280;7137;51.436;6.544;2024-03-17T03:52:49;101837.84;;;5.82;100.00
14117;BME280;7137;51.436;6.544;2024-03-17T03:55:52;101846.47;;;5.81;100.00
14117;BME280;7137;51.436;6.544;2024-03-17T03:58:54;101839.53;;;5.77;100.00
14117;BME280;7137;51.436;6.544;2024-03-17T04:01:55;101833.53;;;5.87;100.00
14117;BME280;7137;51.436;6.544;2024-03-17T04:04:58;101837.84;;;5.81;100.00
14117;BME280;7137;51.436;6.544;2024-03-17T04:08:00;101829.19;;;5.80;100.00
14117;BME280;7137;51.436;6.544;2024-03-17T04:11:04;101828.28;;;5.75;100.00
14117;BME280;7137;51.436;6.544;2024-03-17T04:14:05;101826.53;;;5.71;100.00
14117;BME280;7137;51.436;6.544;2024-03-17T04:17:07;101821.41;;;5.79;100.00
14117;BME280;7137;51.436;6.544;2024-03-17T04:20:09;101818.81;;;5.80;100.00
14117;BME280;7137;51.436;6.544;2024-03-17T04:23:13;101818.84;;;5.88;100.00
14117;BME280;7137;51.436;6.544;2024-03-17T04:26:16;101810.31;;;5.98;100.00
14117;BME280;7137;51.436;6.544;2024-03-17T04:29:18;101806.84;;;5.98;100.00
14117;BME280;7137;51.436;6.544;2024-03-17T04:32:20;101799.94;;;6.04;100.00
14117;BME280;7137;51.436;6.544;2024-03-17T04:35:22;101797.41;;;6.12;100.00
14117;BME280;7137;51.436;6.544;2024-03-17T04:38:23;101800.91;;;6.23;100.00
14117;BME280;7137;51.436;6.544;2024-03-17T04:41:26;101796.63;;;6.36;100.00
14117;BME280;7137;51.436;6.544;2024-03-17T04:44:28;101791.44;;;6.37;100.00
14117;BME280;7137;51.436;6.544;2024-03-17T04:47:30;101790.59;;;6.43;100.00
14117;BME280;7137;51.436;6.544;2024-03-17T04:50:31;101781.06;;;6.39;100.00
14117;BME280;7137;51.436;6.544;2024-03-17T04:53:33;101787.13;;;6.38;100.00
14117;BME280;7137;51.436;6.544;2024-03-17T04:56:36;101774.16;;;6.36;100.00
14117;BME280;7137;51.436;6.544;2024-03-17T04:59:38;101777.59;;;6.34;100.00
14117;BME280;7137;51.436;6.544;2024-03-17T05:02:40;101778.44;;;6.28;100.00
14117;BME280;7137;51.436;6.544;2024-03-17T05:05:42;101779.28;;;6.29;100.00
14117;BME280;7137;51.436;6.544;2024-03-17T05:08:43;101777.56;;;6.29;100.00
14117;BME280;7137;51.436;6.544;2024-03-17T05:11:47;101780.19;;;6.37;100.00
14117;BME280;7137;51.436;6.544;2024-03-17T05:14:48;101784.53;;;6.38;100.00
14117;BME280;7137;51.436;6.544;2024-03-17T05:17:50;101781.06;;;6.40;100.00
14117;BME280;7137;51.436;6.544;2024-03-17T05:20:58;101777.59;;;6.37;100.00
14117;BME280;7137;51.436;6.544;2024-03-17T05:24:01;101773.25;;;6.30;100.00
14117;BME280;7137;51.436;6.544;2024-03-17T05:27:05;101770.66;;;6.33;100.00
14117;BME280;7137;51.436;6.544;2024-03-17T05:30:07;101783.66;;;6.40;100.00
14117;BME280;7137;51.436;6.544;2024-03-17T05:33:09;101773.28;;;6.42;100.00
14117;BME280;7137;51.436;6.544;2024-03-17T05:36:11;101777.63;;;6.43;100.00
14117;BME280;7137;51.436;6.544;2024-03-17T05:39:13;101781.94;;;6.44;100.00
14117;BME280;7137;51.436;6.544;2024-03-17T05:42:16;101787.16;;;6.50;100.00
14117;BME280;7137;51.436;6.544;2024-03-17T05:45:17;101783.69;;;6.60;100.00
14117;BME280;7137;51.436;6.544;2024-03-17T05:48:19;101785.47;;;6.63;100.00
14117;BME280;7137;51.436;6.544;2024-03-17T05:51:21;101793.25;;;6.67;100.00
14117;BME280;7137;51.436;6.544;2024-03-17T05:54:25;101788.94;;;6.69;100.00
14117;BME280;7137;51.436;6.544;2024-03-17T05:57:28;101801.91;;;6.68;100.00
14117;BME280;7137;51.436;6.544;2024-03-17T06:00:30;101792.38;;;6.65;100.00
14117;BME280;7137;51.436;6.544;2024-03-17T06:03:31;101783.72;;;6.63;100.00
14117;BME280;7137;51.436;6.544;2024-03-17T06:06:36;101779.41;;;6.64;100.00
14117;BME280;7137;51.436;6.544;2024-03-17T06:09:37;101775.06;;;6.67;100.00
14117;BME280;7137;51.436;6.544;2024-03-17T06:12:40;101779.41;;;6.73;100.00
14117;BME280;7137;51.436;6.544;2024-03-17T06:15:42;101775.09;;;6.79;100.00
14117;BME280;7137;51.436;6.544;2024-03-17T06:18:44;101775.94;;;6.89;100.00
14117;BME280;7137;51.436;6.544;2024-03-17T06:21:46;101780.31;;;6.95;100.00
14117;BME280;7137;51.436;6.544;2024-03-17T06:24:47;101777.69;;;6.99;100.00
14117;BME280;7137;51.436;6.544;2024-03-17T06:27:51;101782.03;;;7.03;100.00
14117;BME280;7137;51.436;6.544;2024-03-17T06:30:56;101775.09;;;7.02;100.00
14117;BME280;7137;51.436;6.544;2024-03-17T06:33:59;101766.44;;;7.11;100.00
14117;BME280;7137;51.436;6.544;2024-03-17T06:37:01;101755.19;;;6.95;100.00
14117;BME280;7137;51.436;6.544;2024-03-17T06:40:04;101753.44;;;7.03;100.00
14117;BME280;7137;51.436;6.544;2024-03-17T06:43:07;101743.06;;;7.20;100.00
14117;BME280;7137;51.436;6.544;2024-03-17T06:46:09;101747.38;;;7.30;100.00
14117;BME280;7137;51.436;6.544;2024-03-17T06:49:11;101744.78;;;7.47;99.03
14117;BME280;7137;51.436;6.544;2024-03-17T06:52:12;101745.56;;;7.70;97.77
14117;BME280;7137;51.436;6.544;2024-03-17T06:55:14;101748.97;;;7.88;96.44
14117;BME280;7137;51.436;6.544;2024-03-17T06:58:17;101752.34;;;8.13;95.97
14117;BME280;7137;51.436;6.544;2024-03-17T07:01:20;101762.69;;;8.36;94.18
14117;BME280;7137;51.436;6.544;2024-03-17T07:04:22;101760.03;;;8.45;92.82
14117;BME280;7137;51.436;6.544;2024-03-17T07:07:26;101761.69;;;8.55;92.13
14117;BME280;7137;51.436;6.544;2024-03-17T07:10:28;101758.22;;;8.54;91.31
14117;BME280;7137;51.436;6.544;2024-03-17T07:13:32;101757.41;;;8.48;91.85
14117;BME280;7137;51.436;6.544;2024-03-17T07:16:34;101759.94;;;8.55;92.00
14117;BME280;7137;51.436;6.544;2024-03-17T07:19:36;101767.81;;;8.48;91.37
14117;BME280;7137;51.436;6.544;2024-03-17T07:22:37;101766.88;;;8.59;91.09
14117;BME280;7137;51.436;6.544;2024-03-17T07:25:39;101766.00;;;8.62;90.78
14117;BME280;7137;51.436;6.544;2024-03-17T07:28:42;101761.53;;;8.79;89.24
14117;BME280;7137;51.436;6.544;2024-03-17T07:31:45;101758.59;;;9.20;88.37
14117;BME280;7137;51.436;6.544;2024-03-17T07:34:46;101760.09;;;10.83;80.24
14117;BME280;7137;51.436;6.544;2024-03-17T07:37:49;101763.97;;;13.21;68.45
14117;BME280;7137;51.436;6.544;2024-03-17T07:40:58;101773.22;;;15.14;60.49
14117;BME280;7137;51.436;6.544;2024-03-17T07:44:01;101771.81;;;15.56;56.85
14117;BME280;7137;51.436;6.544;2024-03-17T07:47:03;101777.09;;;13.88;61.54
14117;BME280;7137;51.436;6.544;2024-03-17T07:50:06;101774.19;;;12.98;65.21
14117;BME280;7137;51.436;6.544;2024-03-17T07:53:08;101767.13;;;11.82;69.19
14117;BME280;7137;51.436;6.544;2024-03-17T07:56:10;101770.47;;;11.41;72.81
14117;BME280;7137;51.436;6.544;2024-03-17T07:59:14;101765.66;;;11.17;74.21
14117;BME280;7137;51.436;6.544;2024-03-17T08:02:18;101777.41;;;14.08;65.19
14117;BME280;7137;51.436;6.544;2024-03-17T08:05:20;101776.13;;;15.83;56.47
14117;BME280;7137;51.436;6.544;2024-03-17T08:08:22;101785.84;;;17.17;51.92
14117;BME280;7137;51.436;6.544;2024-03-17T08:11:25;101791.59;;;17.89;48.85
14117;BME280;7137;51.436;6.544;2024-03-17T08:14:28;101790.91;;;18.04;49.23
14117;BME280;7137;51.436;6.544;2024-03-17T08:17:30;101796.38;;;17.59;49.46
14117;BME280;7137;51.436;6.544;2024-03-17T08:20:32;101782.81;;;18.83;45.51
14117;BME280;7137;51.436;6.544;2024-03-17T08:23:34;101785.47;;;17.89;48.79
14117;BME280;7137;51.436;6.544;2024-03-17T08:26:38;101780.50;;;16.98;51.63
14117;BME280;7137;51.436;6.544;2024-03-17T08:29:42;101776.56;;;16.65;50.32
14117;BME280;7137;51.436;6.544;2024-03-17T08:32:44;101778.06;;;16.01;52.48
14117;BME280;7137;51.436;6.544;2024-03-17T08:35:52;101771.22;;;14.39;58.30
14117;BME280;7137;51.436;6.544;2024-03-17T08:38:54;101773.63;;;13.55;59.10
14117;BME280;7137;51.436;6.544;2024-03-17T08:41:57;101778.28;;;13.08;62.99
14117;BME280;7137;51.436;6.544;2024-03-17T08:45:00;101766.63;;;12.84;65.55
14117;BME280;7137;51.436;6.544;2024-03-17T08:48:03;101751.72;;;12.49;66.53
14117;BME280;7137;51.436;6.544;2024-03-17T08:51:06;101761.00;;;12.24;69.23
14117;BME280;7137;51.436;6.544;2024-03-17T08:54:08;101762.72;;;11.84;69.90
14117;BME280;7137;51.436;6.544;2024-03-17T08:57:09;101758.16;;;11.93;69.14
14117;BME280;7137;51.436;6.544;2024-03-17T09:00:14;101754.38;;;12.07;69.24
14117;BME280;7137;51.436;6.544;2024-03-17T09:03:15;101759.53;;;12.12;71.53
14117;BME280;7137;51.436;6.544;2024-03-17T09:06:17;101750.75;;;12.14;70.11
14117;BME280;7137;51.436;6.544;2024-03-17T09:09:20;101749.31;;;12.38;70.39
14117;BME280;7137;51.436;6.544;2024-03-17T09:12:21;101740.97;;;12.21;69.40
14117;BME280;7137;51.436;6.544;2024-03-17T09:15:24;101733.94;;;12.25;70.53
14117;BME280;7137;51.436;6.544;2024-03-17T09:18:26;101729.88;;;12.10;70.12
14117;BME280;7137;51.436;6.544;2024-03-17T09:21:28;101723.72;;;12.12;70.80
14117;BME280;7137;51.436;6.544;2024-03-17T09:24:30;101715.13;;;12.44;69.54
14117;BME280;7137;51.436;6.544;2024-03-17T09:27:31;101723.25;;;12.71;67.79
14117;BME280;7137;51.436;6.544;2024-03-17T09:30:35;101731.94;;;12.34;66.74
14117;BME280;7137;51.436;6.544;2024-03-17T09:33:37;101738.06;;;12.35;69.20
14117;BME280;7137;51.436;6.544;2024-03-17T09:36:39;101739.66;;;12.42;69.54
14117;BME280;7137;51.436;6.544;2024-03-17T09:39:40;101749.22;;;12.44;68.93
14117;BME280;7137;51.436;6.544;2024-03-17T09:42:43;101744.09;;;12.38;68.41
14117;BME280;7137;51.436;6.544;2024-03-17T09:45:46;101737.19;;;12.34;70.11
14117;BME280;7137;51.436;6.544;2024-03-17T09:48:48;101730.56;;;12.18;70.24
14117;BME280;7137;51.436;6.544;2024-03-17T09:51:52;101739.75;;;12.37;69.14
14117;BME280;7137;51.436;6.544;2024-03-17T09:54:59;101741.16;;;12.52;67.01
14117;BME280;7137;51.436;6.544;2024-03-17T09:58:02;101736.06;;;12.83;68.64
14117;BME280;7137;51.436;6.544;2024-03-17T10:01:05;101741.16;;;12.54;68.27
14117;BME280;7137;51.436;6.544;2024-03-17T10:04:07;101752.88;;;13.10;68.12
14117;BME280;7137;51.436;6.544;2024-03-17T10:07:10;101749.16;;;12.85;65.54
14117;BME280;7137;51.436;6.544;2024-03-17T10:10:13;101754.34;;;13.22;67.07
14117;BME280;7137;51.436;6.544;2024-03-17T10:13:16;101752.66;;;13.19;66.64
14117;BME280;7137;51.436;6.544;2024-03-17T10:16:24;101755.19;;;13.56;66.20
14117;BME280;7137;51.436;6.544;2024-03-17T10:19:26;101754.38;;;13.54;65.46
14117;BME280;7137;51.436;6.544;2024-03-17T10:22:29;101756.03;;;13.58;63.12
14117;BME280;7137;51.436;6.544;2024-03-17T10:25:32;101738.09;;;14.04;61.72
14117;BME280;7137;51.436;6.544;2024-03-17T10:28:33;101737.69;;;14.47;62.65
14117;BME280;7137;51.436;6.544;2024-03-17T10:31:39;101743.00;;;14.73;62.25
14117;BME280;7137;51.436;6.544;2024-03-17T10:34:41;101735.00;;;14.76;60.80
14117;BME280;7137;51.436;6.544;2024-03-17T10:37:53;101736.53;;;15.10;59.91
14117;BME280;7137;51.436;6.544;2024-03-17T10:40:56;101735.34;;;15.19;60.21
14117;BME280;7137;51.436;6.544;2024-03-17T10:43:59;101732.03;;;15.13;58.95
14117;BME280;7137;51.436;6.544;2024-03-17T10:47:02;101733.38;;;14.72;60.71
14117;BME280;7137;51.436;6.544;2024-03-17T10:50:16;101729.25;;;14.65;61.54
14117;BME280;7137;51.436;6.544;2024-03-17T10:53:20;101730.56;;;14.78;60.26
14117;BME280;7137;51.436;6.544;2024-03-17T10:56:26;101727.22;;;15.00;58.89
14117;BME280;7137;51.436;6.544;2024-03-17T10:59:38;101732.34;;;15.54;57.88
14117;BME280;7137;51.436;6.544;2024-03-17T11:02:42;101730.16;;;15.90;56.37
14117;BME280;7137;51.436;6.544;2024-03-17T11:05:46;101729.91;;;15.48;57.03
14117;BME280;7137;51.436;6.544;2024-03-17T11:08:49;101726.50;;;15.71;56.36
14117;BME280;7137;51.436;6.544;2024-03-17T11:11:51;101724.50;;;16.01;55.56
14117;BME280;7137;51.436;6.544;2024-03-17T11:15:37;101726.34;;;15.99;55.71
14117;BME280;7137;51.436;6.544;2024-03-17T11:18:44;101716.25;;;15.87;55.15
14117;BME280;7137;51.436;6.544;2024-03-17T11:21:46;101726.28;;;16.24;55.83
14117;BME280;7137;51.436;6.544;2024-03-17T11:24:48;101724.66;;;15.48;55.32
14117;BME280;7137;51.436;6.544;2024-03-17T11:27:50;101726.53;;;15.44;57.29
14117;BME280;7137;51.436;6.544;2024-03-17T11:30:52;101725.19;;;15.58;57.56
14117;BME280;7137;51.436;6.544;2024-03-17T11:33:59;101712.03;;;15.58;57.97
14117;BME280;7137;51.436;6.544;2024-03-17T11:37:03;101714.63;;;15.34;55.99
14117;BME280;7137;51.436;6.544;2024-03-17T11:40:23;101710.38;;;15.55;58.04
14117;BME280;7137;51.436;6.544;2024-03-17T11:43:24;101711.50;;;15.48;57.57
14117;BME280;7137;51.436;6.544;2024-03-17T11:46:27;101704.06;;;15.36;58.38
14117;BME280;7137;51.436;6.544;2024-03-17T11:49:31;101696.91;;;15.39;56.87
14117;BME280;7137;51.436;6.544;2024-03-17T11:52:33;101701.31;;;15.39;58.11
14117;BME280;7137;51.436;6.544;2024-03-17T11:55:34;101695.47;;;15.54;57.66
14117;BME280;7137;51.436;6.544;2024-03-17T11:58:36;101691.63;;;15.39;58.17
14117;BME280;7137;51.436;6.544;2024-03-17T12:01:40;101695.41;;;15.81;57.12
14117;BME280;7137;51.436;6.544;2024-03-17T12:04:43;101688.88;;;15.67;57.45
14117;BME280;7137;51.436;6.544;2024-03-17T12:07:45;101688.13;;;16.11;57.67
14117;BME280;7137;51.436;6.544;2024-03-17T12:10:47;101682.25;;;16.26;55.97
14117;BME280;7137;51.436;6.544;2024-03-17T12:13:49;101679.78;;;16.43;55.17
14117;BME280;7137;51.436;6.544;2024-03-17T12:16:51;101689.91;;;16.54;53.69
14117;BME280;7137;51.436;6.544;2024-03-17T12:19:55;101675.13;;;16.28;55.18
14117;BME280;7137;51.436;6.544;2024-03-17T12:22:57;101673.66;;;16.21;53.06
14117;BME280;7137;51.436;6.544;2024-03-17T12:25:59;101671.59;;;16.93;55.63
14117;BME280;7137;51.436;6.544;2024-03-17T12:29:00;101665.78;;;16.85;53.54
14117;BME280;7137;51.436;6.544;2024-03-17T12:32:03;101654.56;;;17.00;52.92
14117;BME280;7137;51.436;6.544;2024-03-17T12:35:12;101650.38;;;16.74;55.14
14117;BME280;7137;51.436;6.544;2024-03-17T12:38:21;101647.69;;;16.33;54.05
14117;BME280;7137;51.436;6.544;2024-03-17T12:41:23;101643.75;;;16.22;53.73
14117;BME280;7137;51.436;6.544;2024-03-17T12:44:24;101640.72;;;16.09;55.40
14117;BME280;7137;51.436;6.544;2024-03-17T12:47:27;101645.81;;;16.14;54.76
14117;BME280;7137;51.436;6.544;2024-03-17T12:50:30;101634.75;;;16.04;54.78
14117;BME280;7137;51.436;6.544;2024-03-17T12:53:31;101634.22;;;16.18;55.26
14117;BME280;7137;51.436;6.544;2024-03-17T12:56:32;101628.09;;;16.17;55.48
14117;BME280;7137;51.436;6.544;2024-03-17T12:59:52;101632.66;;;16.36;55.98
14117;BME280;7137;51.436;6.544;2024-03-17T13:03:24;101611.00;;;16.06;55.00
14117;BME280;7137;51.436;6.544;2024-03-17T13:06:27;101607.75;;;16.21;55.20
14117;BME280;7137;51.436;6.544;2024-03-17T13:09:28;101601.66;;;16.41;56.33
14117;BME280;7137;51.436;6.544;2024-03-17T13:12:31;101593.53;;;16.25;54.88
14117;BME280;7137;51.436;6.544;2024-03-17T13:15:33;101588.16;;;16.06;54.59
14117;BME280;7137;51.436;6.544;2024-03-17T13:18:36;101593.59;;;15.80;56.88
14117;BME280;7137;51.436;6.544;2024-03-17T13:21:39;101582.13;;;16.02;55.62
14117;BME280;7137;51.436;6.544;2024-03-17T13:24:41;101579.69;;;16.20;56.36
14117;BME280;7137;51.436;6.544;2024-03-17T13:27:43;101573.28;;;16.25;56.81
14117;BME280;7137;51.436;6.544;2024-03-17T13:30:45;101556.91;;;16.17;56.40
14117;BME280;7137;51.436;6.544;2024-03-17T13:33:48;101556.25;;;16.12;57.08
14117;BME280;7137;51.436;6.544;2024-03-17T13:36:53;101552.88;;;16.09;58.10
14117;BME280;7137;51.436;6.544;2024-03-17T13:39:54;101540.22;;;16.17;57.45
14117;BME280;7137;51.436;6.544;2024-03-17T13:42:56;101542.81;;;16.18;57.05
14117;BME280;7137;51.436;6.544;2024-03-17T13:45:58;101541.56;;;16.27;57.37
14117;BME280;7137;51.436;6.544;2024-03-17T13:49:07;101551.28;;;16.04;57.84
14117;BME280;7137;51.436;6.544;2024-03-17T13:52:10;101541.00;;;16.20;56.73
14117;BME280;7137;51.436;6.544;2024-03-17T13:55:14;101543.06;;;16.12;56.68
14117;BME280;7137;51.436;6.544;2024-03-17T13:58:16;101545.28;;;16.23;58.37
14117;BME280;7137;51.436;6.544;2024-03-17T14:01:18;101537.28;;;15.82;58.44
14117;BME280;7137;51.436;6.544;2024-03-17T14:04:20;101543.66;;;15.53;58.68
14117;BME280;7137;51.436;6.544;2024-03-17T14:07:23;101530.41;;;15.55;59.05
14117;BME280;7137;51.436;6.544;2024-03-17T14:10:25;101526.81;;;15.57;57.91
14117;BME280;7137;51.436;6.544;2024-03-17T14:13:27;101530.63;;;15.72;59.70
14117;BME280;7137;51.436;6.544;2024-03-17T14:16:31;101524.22;;;15.56;58.93
14117;BME280;7137;51.436;6.544;2024-03-17T14:19:34;101514.16;;;15.43;61.48
14117;BME280;7137;51.436;6.544;2024-03-17T14:22:37;101515.72;;;15.49;61.75
14117;BME280;7137;51.436;6.544;2024-03-17T14:25:39;101507.44;;;15.58;62.77
14117;BME280;7137;51.436;6.544;2024-03-17T14:28:41;101507.50;;;15.57;62.22
14117;BME280;7137;51.436;6.544;2024-03-17T14:31:43;101503.63;;;15.43;60.74
14117;BME280;7137;51.436;6.544;2024-03-17T14:34:46;101503.91;;;15.37;61.53
14117;BME280;7137;51.436;6.544;2024-03-17T14:37:49;101500.72;;;15.51;62.20
14117;BME280;7137;51.436;6.544;2024-03-17T14:40:52;101495.81;;;15.65;61.23
14117;BME280;7137;51.436;6.544;2024-03-17T14:43:53;101497.19;;;15.74;60.71
14117;BME280;7137;51.436;6.544;2024-03-17T14:46:55;101496.72;;;15.64;60.57
14117;BME280;7137;51.436;6.544;2024-03-17T14:49:57;101491.91;;;15.74;62.28
14117;BME280;7137;51.436;6.544;2024-03-17T14:52:59;101480.59;;;15.72;60.03
14117;BME280;7137;51.436;6.544;2024-03-17T14:56:01;101478.81;;;15.94;59.67
14117;BME280;7137;51.436;6.544;2024-03-17T14:59:03;101473.19;;;15.82;60.01
14117;BME280;7137;51.436;6.544;2024-03-17T15:02:07;101465.69;;;15.93;58.67
14117;BME280;7137;51.436;6.544;2024-03-17T15:05:09;101480.06;;;16.06;57.88
14117;BME280;7137;51.436;6.544;2024-03-17T15:08:12;101466.22;;;16.01;57.38
14117;BME280;7137;51.436;6.544;2024-03-17T15:11:13;101459.16;;;16.01;58.26
14117;BME280;7137;51.436;6.544;2024-03-17T15:14:15;101450.66;;;16.15;57.05
14117;BME280;7137;51.436;6.544;2024-03-17T15:17:16;101439.88;;;16.21;58.29
14117;BME280;7137;51.436;6.544;2024-03-17T15:20:18;101441.84;;;16.16;58.55
14117;BME280;7137;51.436;6.544;2024-03-17T15:23:23;101443.38;;;16.22;58.29
14117;BME280;7137;51.436;6.544;2024-03-17T15:26:31;101433.88;;;16.18;59.08
14117;BME280;7137;51.436;6.544;2024-03-17T15:29:33;101430.97;;;16.24;56.26
14117;BME280;7137;51.436;6.544;2024-03-17T15:32:35;101432.97;;;16.19;57.08
14117;BME280;7137;51.436;6.544;2024-03-17T15:35:37;101424.44;;;16.12;57.84
14117;BME280;7137;51.436;6.544;2024-03-17T15:38:44;101426.97;;;15.95;58.86
14117;BME280;7137;51.436;6.544;2024-03-17T15:41:46;101419.84;;;15.97;58.68
14117;BME280;7137;51.436;6.544;2024-03-17T15:44:48;101418.72;;;15.82;57.35
14117;BME280;7137;51.436;6.544;2024-03-17T15:47:51;101410.50;;;16.10;57.45
14117;BME280;7137;51.436;6.544;2024-03-17T15:50:54;101415.34;;;15.99;55.02
14117;BME280;7137;51.436;6.544;2024-03-17T15:53:58;101413.84;;;15.93;55.01
14117;BME280;7137;51.436;6.544;2024-03-17T15:56:59;101420.09;;;15.91;55.89
14117;BME280;7137;51.436;6.544;2024-03-17T16:00:01;101406.13;;;15.89;57.03
14117;BME280;7137;51.436;6.544;2024-03-17T16:03:04;101408.09;;;15.84;55.49
14117;BME280;7137;51.436;6.544;2024-03-17T16:06:09;101404.56;;;16.05;57.82
14117;BME280;7137;51.436;6.544;2024-03-17T16:09:14;101394.03;;;16.05;58.60
14117;BME280;7137;51.436;6.544;2024-03-17T16:12:17;101394.06;;;15.83;57.14